Time;durP1;ratioP1;P1;durP2;ratioP2;P2;SDS_P1;SDS_P2;PMS_P1;PMS_P2;Temp;Humidity;BMP_temperature;BMP_pressure;BME280_temperature;BME280_humidity;BME280_pressure;Samples;Min_cycle;Max_cycle;Signal;HPM_P1;HPM_P2
2022/11/10 00:00:11;;;;;;;4.70;2.60;;;12.20;99.90;;;;;;5070456;28;20470;-85
2022/11/10 00:02:38;;;;;;;4.87;2.27;;;;;;;;;;5068250;28;20460;-86
2022/11/10 00:05:06;;;;;;;2.27;2.07;;;12.10;1.00;;;;;;5067341;28;20488;-87
2022/11/10 00:07:33;;;;;;;3.80;3.00;;;;;;;;;;5071560;28;20465;-87
2022/11/10 00:10:02;;;;;;;2.53;2.33;;;;;;;;;;5064287;28;20485;-87
2022/11/10 00:12:30;;;;;;;2.97;2.40;;;;;;;;;;5064819;28;20484;-87
2022/11/10 00:17:42;;;;;;;4.67;2.73;;;;;;;;;;5068688;28;20457;-87
2022/11/10 00:20:13;;;;;;;5.40;2.60;;;11.80;1.00;;;;;;5063955;28;20532;-87
2022/11/10 00:22:41;;;;;;;5.70;2.43;;;11.70;99.90;;;;;;5067661;28;20431;-87
2022/11/10 00:25:09;;;;;;;3.30;2.40;;;11.70;95.80;;;;;;5073322;28;20520;-87
2022/11/10 00:27:36;;;;;;;2.90;2.70;;;;;;;;;;5073952;28;20437;-86
2022/11/10 00:30:04;;;;;;;4.50;3.03;;;11.50;99.90;;;;;;5076947;28;20465;-87
2022/11/10 00:32:31;;;;;;;8.70;3.80;;;12.10;99.90;;;;;;5077057;28;20433;-86
2022/11/10 00:34:58;;;;;;;3.13;2.90;;;;;;;;;;5076489;28;20478;-85
2022/11/10 00:37:26;;;;;;;9.70;2.90;;;;;;;;;;5076360;28;20469;-85
2022/11/10 00:39:52;;;;;;;3.40;2.10;;;11.90;39.10;;;;;;5072021;28;20492;-86
2022/11/10 00:42:21;;;;;;;3.23;2.07;;;12.00;99.90;;;;;;5070428;28;20446;-86
2022/11/10 00:44:47;;;;;;;5.97;2.77;;;12.30;1.00;;;;;;5064065;28;20477;-86
2022/11/10 00:47:14;;;;;;;2.70;2.03;;;12.40;56.80;;;;;;5064026;28;20497;-87
2022/11/10 00:49:41;;;;;;;3.67;1.70;;;11.90;99.90;;;;;;5060579;28;20452;-84
2022/11/10 00:52:08;;;;;;;2.67;2.30;;;12.30;99.90;;;;;;5061209;28;20453;-84
2022/11/10 00:54:35;;;;;;;4.80;2.47;;;;;;;;;;5061300;28;20949;-86
2022/11/10 00:57:03;;;;;;;2.53;1.80;;;;;;;;;;5061540;28;20500;-86
2022/11/10 00:59:31;;;;;;;4.70;3.23;;;12.10;1.00;;;;;;5060457;28;20442;-86
2022/11/10 01:01:58;;;;;;;4.70;2.50;;;;;;;;;;5061650;28;20822;-85
2022/11/10 01:04:25;;;;;;;5.00;2.00;;;12.00;1.00;;;;;;5061403;28;20485;-86
2022/11/10 01:06:52;;;;;;;5.00;2.50;;;;;;;;;;5061005;28;20520;-86
2022/11/10 01:09:19;;;;;;;3.43;2.13;;;;;;;;;;5061037;28;20874;-86
2022/11/10 01:11:46;;;;;;;7.40;2.30;;;12.10;99.90;;;;;;5061845;28;20503;-86
2022/11/10 01:14:13;;;;;;;3.97;2.37;;;;;;;;;;5061872;28;20452;-86
2022/11/10 01:16:42;;;;;;;2.10;1.90;;;12.10;99.90;;;;;;5062693;28;20843;-86
2022/11/10 01:19:08;;;;;;;4.17;2.17;;;12.20;99.90;;;;;;5064073;28;20530;-86
2022/11/10 01:21:36;;;;;;;3.17;2.30;;;12.10;99.90;;;;;;5063576;28;20457;-86
2022/11/10 01:24:03;;;;;;;5.13;2.43;;;12.20;1.00;;;;;;5063199;28;20532;-86
2022/11/10 01:26:30;;;;;;;4.83;2.30;;;12.10;99.90;;;;;;5062487;28;20495;-87
2022/11/10 01:28:57;;;;;;;2.50;2.10;;;12.00;99.90;;;;;;5063343;28;20532;-86
2022/11/10 01:31:24;;;;;;;4.27;2.40;;;12.00;99.90;;;;;;5062752;28;20471;-87
2022/11/10 01:33:52;;;;;;;4.20;2.40;;;12.00;1.00;;;;;;5069175;28;20541;-85
2022/11/10 01:36:19;;;;;;;4.93;2.93;;;;;;;;;;5080236;28;20486;-86
2022/11/10 01:38:46;;;;;;;6.70;2.60;;;11.90;99.90;;;;;;5075659;28;20508;-86
2022/11/10 01:41:15;;;;;;;3.47;1.90;;;11.90;99.90;;;;;;5066957;28;20453;-88
2022/11/10 01:43:42;;;;;;;2.90;2.10;;;11.90;99.90;;;;;;5065838;28;21030;-87
2022/11/10 01:46:10;;;;;;;4.47;2.60;;;11.90;1.00;;;;;;5068757;28;20888;-87
2022/11/10 01:48:42;;;;;;;2.17;1.97;;;12.00;99.90;;;;;;5067357;28;20476;-87
2022/11/10 01:51:16;;;;;;;2.37;2.00;;;11.80;1.00;;;;;;5086456;22;20910;-87
2022/11/10 01:53:49;;;;;;;3.03;2.20;;;11.80;1.00;;;;;;5063390;28;20437;-87
2022/11/10 01:56:17;;;;;;;2.07;1.80;;;11.70;99.90;;;;;;5066086;28;20445;-87
2022/11/10 01:58:48;;;;;;;5.90;3.13;;;11.40;99.90;;;;;;5059455;28;20430;-87
2022/11/10 02:01:15;;;;;;;3.30;2.40;;;11.80;1.00;;;;;;5058984;28;20896;-87
2022/11/10 02:03:45;;;;;;;6.67;2.50;;;12.00;1.00;;;;;;5059239;28;20505;-87
2022/11/10 02:06:15;;;;;;;2.00;1.90;;;11.70;99.90;;;;;;5058439;28;20560;-87
2022/11/10 02:08:42;;;;;;;3.07;1.90;;;11.70;99.90;;;;;;5058392;28;20992;-88
2022/11/10 02:11:09;;;;;;;2.30;1.70;;;11.70;6.70;;;;;;5058103;28;20534;-88
2022/11/10 02:13:37;;;;;;;3.43;1.50;;;11.70;99.90;;;;;;5057976;28;20492;-87
2022/11/10 02:16:04;;;;;;;3.37;2.07;;;11.60;1.00;;;;;;5058322;28;20477;-88
2022/11/10 02:18:31;;;;;;;2.70;1.90;;;;;;;;;;5059641;28;20468;-88
2022/11/10 02:20:59;;;;;;;4.30;2.40;;;11.80;1.00;;;;;;5060694;28;20501;-87
2022/11/10 02:23:47;;;;;;;5.17;2.07;;;11.70;1.00;;;;;;5059192;28;20528;-87
2022/11/10 02:26:16;;;;;;;8.97;2.67;;;11.70;1.00;;;;;;5058126;28;20491;-88
2022/11/10 02:28:43;;;;;;;3.33;1.90;;;11.70;99.90;;;;;;5057957;28;20486;-88
2022/11/10 02:31:10;;;;;;;4.03;2.07;;;12.00;99.90;;;;;;5058775;28;20493;-88
2022/11/10 02:33:37;;;;;;;2.47;2.23;;;11.70;64.40;;;;;;5058606;28;20453;-87
2022/11/10 02:36:06;;;;;;;11.80;2.90;;;11.80;99.90;;;;;;5059037;28;20450;-88
2022/11/10 02:38:33;;;;;;;3.60;2.60;;;12.00;99.90;;;;;;5058967;28;20477;-88
2022/11/10 02:40:59;;;;;;;2.90;2.43;;;11.80;1.00;;;;;;5059290;28;20527;-88
2022/11/10 02:43:26;;;;;;;2.30;2.07;;;11.80;99.90;;;;;;5068469;28;20528;-86
2022/11/10 02:45:53;;;;;;;2.67;2.47;;;11.60;99.90;;;;;;5065710;28;20533;-87
2022/11/10 02:48:20;;;;;;;4.30;2.13;;;11.80;1.00;;;;;;5060032;28;20533;-87
2022/11/10 02:50:47;;;;;;;2.70;2.50;;;11.80;1.00;;;;;;5060091;28;20448;-87
2022/11/10 02:53:15;;;;;;;3.83;1.97;;;11.80;1.00;;;;;;5060928;28;20454;-87
2022/11/10 02:55:42;;;;;;;7.93;2.30;;;11.90;1.00;;;;;;5058496;28;20472;-87
2022/11/10 02:58:09;;;;;;;6.80;2.60;;;11.80;1.00;;;;;;5058704;28;20445;-87
2022/11/10 03:00:36;;;;;;;2.50;2.30;;;11.80;1.00;;;;;;5058186;28;20917;-87
2022/11/10 03:03:03;;;;;;;2.20;2.00;;;11.80;1.00;;;;;;5058923;28;20451;-87
2022/11/10 03:05:31;;;;;;;5.70;2.20;;;11.90;1.00;;;;;;5050117;28;20477;-87
2022/11/10 03:08:00;;;;;;;3.93;2.13;;;11.90;99.90;;;;;;5057929;28;20445;-87
2022/11/10 03:10:29;;;;;;;6.10;1.77;;;12.00;99.90;;;;;;5057507;28;20549;-87
2022/11/10 03:12:57;;;;;;;2.93;2.37;;;12.00;99.90;;;;;;5059281;28;20446;-87
2022/11/10 03:15:25;;;;;;;3.60;2.30;;;12.00;99.90;;;;;;5058026;28;20452;-86
2022/11/10 03:17:52;;;;;;;4.60;2.70;;;12.40;99.90;;;;;;5057921;28;20445;-86
2022/11/10 03:20:20;;;;;;;7.50;2.43;;;12.00;59.20;;;;;;5057646;28;20552;-87
2022/11/10 03:22:47;;;;;;;4.47;2.37;;;12.00;23.90;;;;;;5057827;28;20468;-87
2022/11/10 03:25:14;;;;;;;4.93;2.57;;;12.00;1.00;;;;;;5059083;28;20536;-87
2022/11/10 03:27:43;;;;;;;6.17;2.53;;;12.30;99.90;;;;;;5056931;28;20824;-87
2022/11/10 03:30:10;;;;;;;5.30;2.20;;;12.20;1.00;;;;;;5057788;28;20465;-87
2022/11/10 03:32:37;;;;;;;2.27;2.07;;;12.20;99.90;;;;;;5059158;28;20450;-87
2022/11/10 03:35:05;;;;;;;3.47;2.43;;;12.10;1.00;;;;;;5057275;28;20434;-87
2022/11/10 03:37:31;;;;;;;4.70;2.67;;;12.10;1.00;;;;;;5058353;28;20495;-88
2022/11/10 03:39:58;;;;;;;5.53;2.50;;;11.90;99.90;;;;;;5057328;28;20511;-89
2022/11/10 03:42:25;;;;;;;3.70;2.13;;;12.10;1.00;;;;;;5057402;28;20533;-89
2022/11/10 03:44:53;;;;;;;4.50;2.47;;;12.10;1.00;;;;;;5057286;28;20540;-88
2022/11/10 03:47:20;;;;;;;3.17;2.53;;;11.80;99.90;;;;;;5057043;28;20565;-88
2022/11/10 03:49:47;;;;;;;5.17;2.07;;;12.20;99.90;;;;;;5056572;28;20450;-89
2022/11/10 03:52:14;;;;;;;4.30;2.33;;;12.00;1.00;;;;;;5059592;28;20437;-88
2022/11/10 03:54:41;;;;;;;4.53;2.40;;;12.00;1.00;;;;;;5057283;28;20800;-88
2022/11/10 03:57:08;;;;;;;4.70;2.27;;;12.00;1.00;;;;;;5056598;28;20544;-88
2022/11/10 03:59:35;;;;;;;4.20;1.90;;;11.90;1.00;;;;;;5057123;28;20540;-88
2022/11/10 04:02:03;;;;;;;5.17;3.00;;;11.90;1.00;;;;;;5057094;28;20469;-88
2022/11/10 04:10:12;;;;;;;4.00;2.50;;;11.80;20.80;;;;;;5018731;28;20479;-88
2022/11/10 04:18:23;;;;;;;8.00;2.60;;;11.60;99.90;;;;;;5056695;28;20786;-88
2022/11/10 04:20:51;;;;;;;3.03;2.60;;;11.30;99.90;;;;;;5056899;28;20470;-88
2022/11/10 04:23:27;;;;;;;6.27;2.70;;;11.60;99.90;;;;;;5075985;28;20488;-88
2022/11/10 04:28:39;;;;;;;4.03;2.60;;;11.50;99.90;;;;;;5078613;28;20405;-90
2022/11/10 04:31:06;;;;;;;3.23;2.50;;;;;;;;;;5074109;28;20465;-88
2022/11/10 04:33:35;;;;;;;7.60;2.93;;;11.60;96.30;;;;;;5067471;28;20445;-88
2022/11/10 04:36:02;;;;;;;5.03;2.50;;;11.50;1.00;;;;;;5068559;28;20536;-87
2022/11/10 04:38:28;;;;;;;3.07;2.60;;;11.60;52.30;;;;;;5072460;28;20442;-87
2022/11/10 04:40:55;;;;;;;6.10;3.93;;;11.60;90.10;;;;;;5075057;28;20484;-87
2022/11/10 04:43:22;;;;;;;3.78;2.00;;;;;;;;;;5070140;28;20443;-87
2022/11/10 04:45:50;;;;;;;4.70;2.67;;;11.60;13.90;;;;;;5063486;28;20850;-87
2022/11/10 04:48:16;;;;;;;5.25;2.80;;;11.50;99.90;;;;;;5057807;28;20519;-87
2022/11/10 04:50:45;;;;;;;9.47;3.83;;;11.50;99.90;;;;;;5058310;28;20317;-88
2022/11/10 04:53:12;;;;;;;3.20;2.90;;;11.50;99.90;;;;;;5057638;28;20456;-87
2022/11/10 04:55:40;;;;;;;3.57;2.63;;;11.70;1.00;;;;;;5060015;28;20457;-87
2022/11/10 04:58:07;;;;;;;8.20;3.40;;;11.40;99.90;;;;;;5061088;28;20446;-88
2022/11/10 05:00:36;;;;;;;4.73;3.57;;;11.40;99.90;;;;;;5059893;28;20470;-87
2022/11/10 05:03:06;;;;;;;5.63;2.83;;;11.40;99.90;;;;;;5060038;28;20520;-87
2022/11/10 05:05:33;;;;;;;12.13;7.43;;;11.30;99.90;;;;;;5068947;28;20409;-87
2022/11/10 05:08:02;;;;;;;5.13;2.87;;;11.30;99.90;;;;;;5064360;28;20564;-88
2022/11/10 05:10:29;;;;;;;9.53;3.80;;;11.30;99.90;;;;;;5058255;28;21020;-88
2022/11/10 05:12:57;;;;;;;9.93;3.50;;;10.80;1.00;;;;;;5056400;28;20544;-88
2022/11/10 05:15:24;;;;;;;4.50;3.20;;;11.20;99.90;;;;;;5056903;28;20478;-88
2022/11/10 05:17:53;;;;;;;7.47;3.37;;;11.10;99.90;;;;;;5057293;28;20537;-88
2022/11/10 05:20:22;;;;;;;6.03;3.77;;;11.10;1.00;;;;;;5056360;28;20472;-88
2022/11/10 05:25:32;;;;;;;4.30;3.23;;;11.10;99.90;;;;;;5054869;28;20453;-88
2022/11/10 05:27:58;;;;;;;3.90;2.80;;;11.00;1.00;;;;;;5055945;28;20481;-88
2022/11/10 05:30:25;;;;;;;5.82;3.13;;;10.80;1.00;;;;;;5056389;28;20458;-88
2022/11/10 05:32:52;;;;;;;4.60;2.83;;;10.90;1.00;;;;;;5057675;28;20916;-88
2022/11/10 05:35:19;;;;;;;7.53;3.80;;;10.80;15.90;;;;;;5060175;28;20522;-89
2022/11/10 05:37:46;;;;;;;9.57;3.90;;;11.00;1.00;;;;;;5059780;28;20246;-88
2022/11/10 05:40:13;;;;;;;10.77;3.60;;;11.00;1.00;;;;;;5059287;28;20480;-88
2022/11/10 05:42:44;;;;;;;8.43;3.27;;;11.00;1.00;;;;;;5058781;28;20449;-88
2022/11/10 05:45:11;;;;;;;6.83;4.00;;;11.00;1.00;;;;;;5059422;28;20464;-88
2022/11/10 05:47:39;;;;;;;5.90;3.63;;;11.10;99.90;;;;;;5067044;28;20485;-88
2022/11/10 05:50:08;;;;;;;5.87;3.73;;;10.90;1.00;;;;;;5061224;28;20572;-89
2022/11/10 05:52:35;;;;;;;7.53;3.60;;;10.90;1.00;;;;;;5060896;28;20433;-88
2022/11/10 05:55:02;;;;;;;8.33;4.60;;;10.90;1.00;;;;;;5060017;28;20427;-88
2022/11/10 05:57:29;;;;;;;5.77;3.67;;;10.50;99.90;;;;;;5052196;28;20479;-91
2022/11/10 05:59:57;;;;;;;10.27;4.80;;;10.50;99.90;;;;;;5059770;28;20446;-88
2022/11/10 06:02:24;;;;;;;8.17;4.80;;;10.90;1.00;;;;;;5060144;28;21011;-88
2022/11/10 06:04:51;;;;;;;6.17;4.07;;;;;;;;;;5060535;28;20552;-88
2022/11/10 06:07:18;;;;;;;14.83;4.63;;;11.10;99.90;;;;;;5075917;28;20478;-89
2022/11/10 06:09:47;;;;;;;7.23;3.90;;;10.70;99.90;;;;;;5079724;28;20480;-90
2022/11/10 06:12:14;;;;;;;8.13;3.97;;;10.80;1.00;;;;;;5079924;28;20434;-88
2022/11/10 06:14:41;;;;;;;7.33;4.10;;;10.70;1.00;;;;;;5071130;28;20446;-88
2022/11/10 06:17:09;;;;;;;5.83;4.03;;;10.70;1.00;;;;;;5063927;28;20514;-89
2022/11/10 06:19:36;;;;;;;5.10;3.90;;;10.70;99.90;;;;;;5060047;28;20544;-88
2022/11/10 06:22:03;;;;;;;7.23;4.37;;;10.70;99.90;;;;;;5059889;28;20549;-88
2022/11/10 06:24:30;;;;;;;5.17;3.97;;;10.70;92.80;;;;;;5060930;28;20528;-88
2022/11/10 06:26:57;;;;;;;6.83;4.23;;;10.70;4.90;;;;;;5062467;28;20488;-88
2022/11/10 06:29:24;;;;;;;4.13;3.73;;;10.70;99.90;;;;;;5061955;28;20441;-88
2022/11/10 06:31:51;;;;;;;8.13;6.10;;;10.70;99.90;;;;;;5060943;28;20553;-88
2022/11/10 06:34:20;;;;;;;7.40;5.57;;;10.50;1.00;;;;;;5070506;28;20449;-88
2022/11/10 06:36:46;;;;;;;5.73;5.00;;;10.70;1.00;;;;;;5060692;28;20953;-88
2022/11/10 06:39:14;;;;;;;7.47;4.77;;;10.70;1.00;;;;;;5060382;28;20445;-88
2022/11/10 06:41:40;;;;;;;9.23;4.63;;;10.80;1.00;;;;;;5059732;28;20498;-88
2022/11/10 06:44:07;;;;;;;5.93;5.30;;;10.70;99.90;;;;;;5058540;28;20446;-88
2022/11/10 06:46:34;;;;;;;12.13;5.90;;;10.50;99.90;;;;;;5060270;28;20957;-88
2022/11/10 06:49:01;;;;;;;14.57;5.13;;;10.60;99.90;;;;;;5060569;28;20449;-88
2022/11/10 06:51:31;;;;;;;10.67;5.20;;;;;;;;;;5059660;28;20532;-88
2022/11/10 06:53:58;;;;;;;10.93;6.20;;;10.60;99.90;;;;;;5058983;28;20529;-88
2022/11/10 06:56:25;;;;;;;15.17;7.13;;;;;;;;;;5058727;28;20468;-88
2022/11/10 06:58:52;;;;;;;10.33;5.37;;;10.60;99.90;;;;;;5058281;28;20430;-89
2022/11/10 07:01:20;;;;;;;9.00;5.10;;;10.50;1.00;;;;;;5059607;28;20552;-88
2022/11/10 07:03:47;;;;;;;9.67;4.90;;;;;;;;;;5059246;28;20521;-88
2022/11/10 07:06:14;;;;;;;9.10;3.67;;;;;;;;;;5058973;28;20496;-88
2022/11/10 07:08:43;;;;;;;9.37;4.10;;;;;;;;;;5058070;28;20421;-88
2022/11/10 07:11:10;;;;;;;6.03;4.40;;;;;;;;;;5059062;28;20855;-88
2022/11/10 07:13:37;;;;;;;5.87;4.00;;;;;;;;;;5060989;28;20464;-88
2022/11/10 07:16:04;;;;;;;7.30;5.40;;;10.80;1.00;;;;;;5077143;28;20501;-89
2022/11/10 07:18:32;;;;;;;6.50;4.93;;;;;;;;;;5076759;28;20438;-88
2022/11/10 07:20:59;;;;;;;23.60;13.37;;;;;;;;;;5076919;28;20446;-88
2022/11/10 07:23:26;;;;;;;21.00;10.60;;;11.30;99.90;;;;;;5078272;28;20454;-88
2022/11/10 07:25:54;;;;;;;32.50;14.47;;;11.00;1.00;;;;;;5077740;28;20407;-88
2022/11/10 07:28:21;;;;;;;27.27;13.57;;;11.20;1.00;;;;;;5078456;28;20473;-88
2022/11/10 07:30:48;;;;;;;21.40;11.57;;;;;;;;;;5078658;28;20470;-88
2022/11/10 07:33:15;;;;;;;17.00;9.07;;;11.10;1.00;;;;;;5079029;28;20453;-88
2022/11/10 07:35:43;;;;;;;15.80;7.17;;;11.00;1.00;;;;;;5077853;28;20416;-89
2022/11/10 07:38:12;;;;;;;14.10;6.93;;;11.60;1.00;;;;;;5076831;28;20465;-90
2022/11/10 07:40:40;;;;;;;10.17;6.70;;;;;;;;;;5070411;28;20473;-88
2022/11/10 07:43:08;;;;;;;10.00;7.33;;;11.20;99.90;;;;;;5059791;28;20492;-88
2022/11/10 07:45:35;;;;;;;9.27;8.20;;;11.20;99.90;;;;;;5058165;28;20490;-88
2022/11/10 07:48:03;;;;;;;11.43;5.40;;;11.20;99.90;;;;;;5058648;28;20500;-88
2022/11/10 07:51:09;;;;;;;19.40;7.27;;;10.90;1.00;;;;;;5074853;22;20540;-83
2022/11/10 07:53:44;;;;;;;4.87;3.87;;;;;;;;;;5036258;28;20475;-85
2022/11/10 07:56:16;;;;;;;12.23;4.03;;;;;;;;;;5060288;28;20464;-85
2022/11/10 07:58:45;;;;;;;9.83;4.90;;;11.20;99.90;;;;;;5059377;28;20435;-84
2022/11/10 08:01:11;;;;;;;6.20;5.50;;;11.20;99.90;;;;;;5059550;28;20461;-85
2022/11/10 08:03:38;;;;;;;13.37;5.20;;;11.10;99.90;;;;;;5060200;28;20454;-87
2022/11/10 08:06:05;;;;;;;8.50;5.13;;;11.10;1.00;;;;;;5063438;28;20450;-87
2022/11/10 08:08:32;;;;;;;6.87;4.50;;;11.30;1.00;;;;;;5063529;28;20492;-85
2022/11/10 08:10:59;;;;;;;7.83;4.93;;;11.20;99.90;;;;;;5064529;28;20501;-87
2022/11/10 08:13:26;;;;;;;7.00;4.67;;;11.20;99.90;;;;;;5065037;28;20516;-86
2022/11/10 08:15:56;;;;;;;9.43;5.60;;;11.20;99.90;;;;;;5064183;28;20451;-88
2022/11/10 08:18:24;;;;;;;7.67;6.90;;;11.30;99.90;;;;;;5061747;28;20455;-88
2022/11/10 08:20:52;;;;;;;9.43;6.00;;;11.50;99.90;;;;;;5064988;28;20473;-87
2022/11/10 08:23:19;;;;;;;6.20;5.60;;;;;;;;;;5061947;28;20515;-87
2022/11/10 08:25:47;;;;;;;5.77;5.27;;;;;;;;;;5063004;28;20420;-88
2022/11/10 08:28:15;;;;;;;7.10;5.53;;;11.40;99.90;;;;;;5064299;28;20481;-86
2022/11/10 08:30:44;;;;;;;9.93;7.00;;;11.50;99.90;;;;;;5062019;28;20469;-86
2022/11/10 08:33:14;;;;;;;7.50;4.57;;;11.50;99.90;;;;;;5061570;28;20456;-87
2022/11/10 08:35:42;;;;;;;7.93;4.70;;;11.50;13.60;;;;;;5063295;28;20477;-88
2022/11/10 08:38:12;;;;;;;8.03;4.90;;;11.60;2.70;;;;;;5059717;28;20489;-84
2022/11/10 08:40:40;;;;;;;13.63;4.90;;;11.70;1.00;;;;;;5057714;28;20469;-86
2022/11/10 08:43:07;;;;;;;6.83;4.60;;;12.10;99.90;;;;;;5061013;28;20439;-86
2022/11/10 08:45:34;;;;;;;6.60;4.13;;;12.50;99.90;;;;;;5061617;28;20540;-88
2022/11/10 08:48:04;;;;;;;8.20;4.13;;;11.70;99.90;;;;;;5060758;28;20452;-87
2022/11/10 08:50:33;;;;;;;11.57;5.20;;;12.00;99.90;;;;;;5059439;28;20477;-86
2022/11/10 08:53:01;;;;;;;11.20;4.70;;;12.10;1.00;;;;;;5060083;28;20434;-87
2022/11/10 08:55:36;;;;;;;11.53;4.10;;;12.20;1.00;;;;;;5064857;28;20453;-87
2022/11/10 08:58:05;;;;;;;9.73;4.60;;;12.40;99.90;;;;;;5065542;28;21005;-89
2022/11/10 09:00:38;;;;;;;7.93;4.00;;;12.20;1.00;;;;;;5065260;28;20527;-86
2022/11/10 09:03:07;;;;;;;5.87;4.40;;;12.30;1.00;;;;;;5061528;28;20449;-86
2022/11/10 09:05:36;;;;;;;9.50;4.03;;;12.50;99.90;;;;;;5060779;28;20529;-88
2022/11/10 09:08:04;;;;;;;10.27;4.33;;;12.50;1.00;;;;;;5063401;28;20937;-87
2022/11/10 09:10:31;;;;;;;10.90;5.33;;;12.40;1.00;;;;;;5066251;28;20815;-86
2022/11/10 09:13:00;;;;;;;11.30;4.53;;;12.40;1.00;;;;;;5064847;28;20514;-87
2022/11/10 09:15:30;;;;;;;6.40;3.90;;;12.50;1.00;;;;;;5064663;28;20446;-88
2022/11/10 09:18:22;;;;;;;7.43;4.57;;;12.40;1.00;;;;;;5064142;28;20472;-87
2022/11/10 09:20:55;;;;;;;6.33;4.43;;;;;;;;;;5064258;28;20469;-86
2022/11/10 09:23:25;;;;;;;7.90;4.00;;;;;;;;;;5063119;28;20453;-87
2022/11/10 09:25:56;;;;;;;8.40;4.20;;;12.50;1.00;;;;;;5063093;28;20449;-87
2022/11/10 09:29:20;;;;;;;;;;;;;;;;;;;;;
2022/11/10 09:38:25;;;;;;;9.47;4.97;;;;;;;;;;4967126;28;20492;-86
2022/11/10 09:41:03;;;;;;;9.73;5.50;;;12.50;1.00;;;;;;5000258;28;21090;-87
2022/11/10 09:46:38;;;;;;;5.03;4.00;;;12.50;1.00;;;;;;5068702;28;20434;-86
2022/11/10 09:49:24;;;;;;;8.17;4.07;;;12.60;99.90;;;;;;5064004;28;20508;-87
2022/11/10 09:52:03;;;;;;;6.70;4.30;;;12.60;99.90;;;;;;5065611;28;20798;-87
2022/11/10 09:54:58;;;;;;;12.60;4.40;;;12.60;99.90;;;;;;5064735;28;20452;-86
2022/11/10 09:57:37;;;;;;;8.53;5.97;;;;;;;;;;5062687;28;20434;-88
2022/11/10 10:03:17;;;;;;;5.50;4.43;;;12.70;1.00;;;;;;5068674;22;20497;-87
2022/11/10 10:09:16;;;;;;;11.60;5.20;;;12.80;99.90;;;;;;5058422;28;20960;-86
2022/11/10 10:12:19;;;;;;;6.37;4.53;;;12.90;99.90;;;;;;5061678;28;20527;-86
2022/11/10 10:15:56;;;;;;;11.63;5.33;;;12.90;99.90;;;;;;5075320;28;20429;-87
2022/11/10 10:19:00;;;;;;;11.83;4.70;;;12.90;99.90;;;;;;5010151;28;20458;-87
2022/11/10 10:22:39;;;;;;;10.80;3.90;;;12.90;99.90;;;;;;5061491;28;20485;-87
2022/11/10 10:32:16;;;;;;;11.77;4.33;;;;;;;;;;5079431;28;20446;-87
2022/11/10 10:35:27;;;;;;;13.80;3.60;;;13.00;99.90;;;;;;5076344;28;20440;-87
2022/11/10 10:41:53;;;;;;;5.70;3.60;;;13.10;99.90;;;;;;5064174;28;20474;-87
2022/11/10 10:44:42;;;;;;;7.73;4.77;;;;;;;;;;5070121;28;20462;-85
2022/11/10 10:56:55;;;;;;;9.67;3.77;;;;;;;;;;5068808;28;20446;-85
2022/11/10 10:59:36;;;;;;;8.70;4.90;;;;;;;;;;5070414;28;20446;-86
2022/11/10 11:02:36;;;;;;;8.03;3.97;;;13.10;99.90;;;;;;5068836;28;20462;-85
2022/11/10 11:05:27;;;;;;;11.00;3.60;;;;;;;;;;5074447;28;20498;-86
2022/11/10 11:08:18;;;;;;;;;;;;;;;;;;;;;
2022/11/10 11:11:26;;;;;;;11.30;3.90;;;13.60;99.90;;;;;;5066727;28;20470;-87
2022/11/10 11:14:00;;;;;;;6.47;3.70;;;;;;;;;;5066433;28;20452;-87
2022/11/10 11:16:49;;;;;;;7.33;3.70;;;13.50;99.90;;;;;;5065601;28;20442;-88
2022/11/10 11:19:44;;;;;;;5.67;3.50;;;13.50;99.90;;;;;;5067014;28;20533;-88
2022/11/10 11:39:47;;;;;;;6.20;3.50;;;13.90;99.90;;;;;;4882773;29;20454;-87
2022/11/10 11:52:37;;;;;;;5.73;2.80;;;14.40;8.30;;;;;;5048565;28;20521;-86
2022/11/10 12:05:44;;;;;;;10.67;3.43;;;14.20;1.00;;;;;;4983939;28;20455;-87
2022/11/10 12:08:40;;;;;;;4.47;3.50;;;14.20;13.10;;;;;;4946526;28;20481;-86
2022/11/10 12:11:32;;;;;;;5.90;2.93;;;14.10;15.50;;;;;;4991669;28;20497;-86
2022/11/10 12:14:26;;;;;;;5.60;3.30;;;14.10;26.30;;;;;;5058932;28;20458;-87
2022/11/10 12:17:13;;;;;;;9.00;3.67;;;14.10;11.20;;;;;;5059747;28;20813;-87
2022/11/10 12:19:59;;;;;;;6.00;2.67;;;14.10;21.40;;;;;;5061379;28;20430;-86
2022/11/10 12:22:58;;;;;;;5.83;2.63;;;14.20;31.90;;;;;;5062653;28;20473;-85
2022/11/10 12:26:11;;;;;;;5.67;3.27;;;14.30;6.40;;;;;;5058872;28;20454;-86
2022/11/10 12:28:44;;;;;;;10.90;2.87;;;14.30;13.80;;;;;;5061479;28;20477;-86
2022/11/10 12:34:35;;;;;;;4.83;2.70;;;14.20;17.30;;;;;;5043471;28;20476;-86
2022/11/10 12:37:43;;;;;;;6.00;2.93;;;14.10;6.50;;;;;;5057491;28;20513;-86
2022/11/10 12:46:25;;;;;;;13.10;3.20;;;;;;;;;;5027037;28;20438;-86
2022/11/10 12:49:06;;;;;;;16.47;3.40;;;14.20;1.00;;;;;;5059604;28;20465;-86
2022/11/10 12:51:51;;;;;;;6.07;3.57;;;14.10;1.00;;;;;;5060253;28;20449;-86
2022/11/10 12:54:34;;;;;;;8.77;2.73;;;14.00;1.30;;;;;;5062799;28;20458;-87
2022/11/10 12:57:25;;;;;;;3.77;2.47;;;14.00;3.90;;;;;;5062214;28;20441;-87
2022/11/10 13:09:58;;;;;;;;;;;;;;;;;;;;;
2022/11/10 13:12:32;;;;;;;5.67;3.00;;;;;;;;;;5066488;28;20497;-85
2022/11/10 13:18:06;;;;;;;6.80;2.57;;;;;;;;;;5054234;28;20453;-86
2022/11/10 13:21:09;;;;;;;5.47;2.80;;;14.30;1.00;;;;;;5058275;28;20470;-86
2022/11/10 13:24:14;;;;;;;10.57;3.90;;;14.20;1.00;;;;;;5050892;28;20473;-85
2022/11/10 13:26:54;;;;;;;6.17;3.00;;;14.10;1.00;;;;;;5053128;28;20457;-86
2022/11/10 13:29:33;;;;;;;5.13;2.90;;;13.90;1.00;;;;;;5058119;28;20476;-86
2022/11/10 13:35:55;;;;;;;8.17;2.80;;;13.90;1.00;;;;;;5042737;28;20444;-86
2022/11/10 13:38:38;;;;;;;6.03;3.00;;;;;;;;;;5058951;28;20465;-87
2022/11/10 13:42:10;;;;;;;;;;;;;;;;;;;;;
2022/11/10 13:44:56;;;;;;;9.13;5.90;;;;;;;;;;5060723;28;20497;-86
2022/11/10 13:48:09;;;;;;;7.83;3.20;;;14.20;1.00;;;;;;5063075;28;20537;-88
2022/11/10 13:50:49;;;;;;;5.00;2.90;;;14.20;1.00;;;;;;5095245;22;20495;-86
2022/11/10 13:53:30;;;;;;;8.43;2.23;;;14.20;1.00;;;;;;5052672;28;20450;-87
2022/11/10 13:56:14;;;;;;;5.10;2.73;;;14.30;99.90;;;;;;5056616;28;20423;-86
2022/11/10 13:58:44;;;;;;;4.00;2.70;;;14.20;1.00;;;;;;5053912;28;20419;-86
2022/11/10 14:01:27;;;;;;;10.47;4.40;;;14.30;1.00;;;;;;5056680;28;20485;-86
2022/11/10 14:03:59;;;;;;;10.43;4.90;;;14.30;1.00;;;;;;5058883;28;20494;-86
2022/11/10 14:06:30;;;;;;;9.20;2.53;;;14.30;99.90;;;;;;5051389;28;20488;-87
2022/11/10 14:09:05;;;;;;;6.90;3.90;;;14.20;1.00;;;;;;5045824;28;20560;-87
2022/11/10 14:11:40;;;;;;;4.50;3.03;;;14.20;1.00;;;;;;5045879;28;20894;-87
2022/11/10 14:14:14;;;;;;;7.50;2.70;;;13.80;99.90;;;;;;5044847;28;20453;-88
2022/11/10 14:16:42;;;;;;;4.60;4.10;;;13.70;99.90;;;;;;5043595;28;20513;-88
2022/11/10 14:19:36;;;;;;;2.40;2.20;;;14.00;1.00;;;;;;5042716;28;20470;-87
2022/11/10 14:22:13;;;;;;;8.33;4.27;;;14.00;1.00;;;;;;5042457;28;20466;-88
2022/11/10 14:24:55;;;;;;;9.20;3.80;;;13.90;1.00;;;;;;5044281;28;20815;-88
2022/11/10 14:27:26;;;;;;;8.50;4.20;;;14.00;1.00;;;;;;5048640;28;20498;-87
2022/11/10 14:30:06;;;;;;;5.33;2.43;;;13.70;99.90;;;;;;5052943;28;20574;-87
2022/11/10 14:32:33;;;;;;;5.20;2.90;;;13.90;1.00;;;;;;5056108;28;20497;-87
2022/11/10 14:35:01;;;;;;;5.60;2.97;;;13.80;99.90;;;;;;5060278;28;20421;-87
2022/11/10 14:37:29;;;;;;;4.87;4.03;;;13.80;99.90;;;;;;5060150;28;20463;-87
2022/11/10 14:39:58;;;;;;;5.77;3.00;;;13.80;1.00;;;;;;5060174;28;20458;-87
2022/11/10 14:42:29;;;;;;;6.20;3.33;;;13.80;1.00;;;;;;5059961;28;20475;-86
2022/11/10 14:45:07;;;;;;;6.80;3.67;;;13.80;1.00;;;;;;5060283;28;20570;-87
2022/11/10 14:47:34;;;;;;;4.47;2.90;;;13.70;7.80;;;;;;5059544;28;20481;-87
2022/11/10 14:50:17;;;;;;;8.83;4.20;;;14.00;30.00;;;;;;5055855;28;20501;-87
2022/11/10 14:52:48;;;;;;;9.00;3.30;;;14.10;99.90;;;;;;5056395;28;20481;-88
2022/11/10 14:55:19;;;;;;;9.50;3.87;;;13.70;1.00;;;;;;5053839;28;20502;-88
2022/11/10 14:58:01;;;;;;;7.00;3.10;;;13.90;99.90;;;;;;5055287;28;20521;-87
2022/11/10 15:00:33;;;;;;;12.67;4.10;;;13.80;99.90;;;;;;5052569;28;20427;-87
2022/11/10 15:03:00;;;;;;;5.47;3.40;;;13.60;7.20;;;;;;5044865;28;20493;-88
2022/11/10 15:05:31;;;;;;;14.13;8.43;;;13.60;21.90;;;;;;5054234;28;20510;-87
2022/11/10 15:07:59;;;;;;;19.20;9.87;;;13.60;5.50;;;;;;5048611;28;20513;-87
2022/11/10 15:10:28;;;;;;;6.13;4.10;;;13.70;99.90;;;;;;5044622;28;20546;-87
2022/11/10 15:13:04;;;;;;;8.30;4.00;;;13.40;10.30;;;;;;5047016;28;20470;-87
2022/11/10 15:15:31;;;;;;;8.93;3.50;;;13.40;11.60;;;;;;5054001;28;20421;-85
2022/11/10 15:17:58;;;;;;;7.30;4.17;;;13.40;67.40;;;;;;5055716;28;20430;-86
2022/11/10 15:20:37;;;;;;;9.37;4.70;;;13.70;99.90;;;;;;5054257;28;20473;-87
2022/11/10 15:23:15;;;;;;;7.53;4.70;;;13.30;27.40;;;;;;5049681;28;20529;-87
2022/11/10 15:25:42;;;;;;;6.83;3.90;;;13.30;84.10;;;;;;5042945;28;20526;-87
2022/11/10 15:28:22;;;;;;;5.13;3.07;;;13.20;29.30;;;;;;5051284;28;20463;-87
2022/11/10 15:30:55;;;;;;;9.13;3.97;;;13.20;30.60;;;;;;5048605;28;20853;-87
2022/11/10 15:33:26;;;;;;;3.47;3.17;;;13.10;48.80;;;;;;5043820;28;20508;-86
2022/11/10 15:35:54;;;;;;;4.67;3.80;;;13.10;75.20;;;;;;5045259;28;20441;-85
2022/11/10 15:38:27;;;;;;;15.13;8.10;;;12.90;99.90;;;;;;5051356;28;20475;-85